sensor_id;sensor_type;location;lat;lon;timestamp;P1;durP1;ratioP1;P2;durP2;ratioP2
38717;SDS011;24468;52.128;9.278;2023-03-12T00:01:35;8.90;;;5.45;;
38717;SDS011;24468;52.128;9.278;2023-03-12T00:04:04;7.55;;;5.05;;
38717;SDS011;24468;52.128;9.278;2023-03-12T00:06:30;10.02;;;5.90;;
38717;SDS011;24468;52.128;9.278;2023-03-12T00:08:56;9.18;;;5.75;;
38717;SDS011;24468;52.128;9.278;2023-03-12T00:11:22;8.27;;;5.50;;
38717;SDS011;24468;52.128;9.278;2023-03-12T00:13:52;6.93;;;5.53;;
38717;SDS011;24468;52.128;9.278;2023-03-12T00:16:20;8.82;;;4.90;;
38717;SDS011;24468;52.128;9.278;2023-03-12T00:18:46;9.43;;;5.63;;
38717;SDS011;24468;52.128;9.278;2023-03-12T00:21:14;8.65;;;4.75;;
38717;SDS011;24468;52.128;9.278;2023-03-12T00:23:40;7.85;;;4.43;;
38717;SDS011;24468;52.128;9.278;2023-03-12T00:26:10;6.95;;;4.70;;
38717;SDS011;24468;52.128;9.278;2023-03-12T00:28:38;8.77;;;4.82;;
38717;SDS011;24468;52.128;9.278;2023-03-12T00:31:17;10.20;;;5.22;;
38717;SDS011;24468;52.128;9.278;2023-03-12T00:33:44;5.80;;;4.10;;
38717;SDS011;24468;52.128;9.278;2023-03-12T00:36:10;6.85;;;4.03;;
38717;SDS011;24468;52.128;9.278;2023-03-12T00:38:36;6.30;;;3.90;;
38717;SDS011;24468;52.128;9.278;2023-03-12T00:41:02;5.60;;;4.07;;
38717;SDS011;24468;52.128;9.278;2023-03-12T00:43:27;5.20;;;3.35;;
38717;SDS011;24468;52.128;9.278;2023-03-12T00:45:53;7.05;;;3.75;;
38717;SDS011;24468;52.128;9.278;2023-03-12T00:48:18;9.13;;;4.47;;
38717;SDS011;24468;52.128;9.278;2023-03-12T00:50:44;6.82;;;3.65;;
38717;SDS011;24468;52.128;9.278;2023-03-12T00:53:09;5.65;;;4.25;;
38717;SDS011;24468;52.128;9.278;2023-03-12T00:55:35;6.80;;;3.90;;
38717;SDS011;24468;52.128;9.278;2023-03-12T00:58:00;6.07;;;4.28;;
38717;SDS011;24468;52.128;9.278;2023-03-12T01:00:26;7.25;;;4.03;;
38717;SDS011;24468;52.128;9.278;2023-03-12T01:02:52;6.05;;;4.05;;
38717;SDS011;24468;52.128;9.278;2023-03-12T01:05:17;6.70;;;3.85;;
38717;SDS011;24468;52.128;9.278;2023-03-12T01:07:43;4.65;;;3.72;;
38717;SDS011;24468;52.128;9.278;2023-03-12T01:10:09;9.40;;;4.55;;
38717;SDS011;24468;52.128;9.278;2023-03-12T01:12:39;6.57;;;3.83;;
38717;SDS011;24468;52.128;9.278;2023-03-12T01:15:05;7.82;;;4.03;;
38717;SDS011;24468;52.128;9.278;2023-03-12T01:17:32;5.63;;;3.50;;
38717;SDS011;24468;52.128;9.278;2023-03-12T01:19:57;6.95;;;3.90;;
38717;SDS011;24468;52.128;9.278;2023-03-12T01:22:23;8.52;;;3.42;;
38717;SDS011;24468;52.128;9.278;2023-03-12T01:24:48;7.38;;;3.70;;
38717;SDS011;24468;52.128;9.278;2023-03-12T01:27:14;6.80;;;3.78;;
38717;SDS011;24468;52.128;9.278;2023-03-12T01:29:39;4.38;;;3.63;;
38717;SDS011;24468;52.128;9.278;2023-03-12T01:32:05;4.18;;;2.80;;
38717;SDS011;24468;52.128;9.278;2023-03-12T01:34:31;5.55;;;3.22;;
38717;SDS011;24468;52.128;9.278;2023-03-12T01:36:59;5.05;;;3.28;;
38717;SDS011;24468;52.128;9.278;2023-03-12T01:39:25;5.72;;;3.65;;
38717;SDS011;24468;52.128;9.278;2023-03-12T01:41:51;6.68;;;3.90;;
38717;SDS011;24468;52.128;9.278;2023-03-12T01:44:17;6.32;;;3.45;;
38717;SDS011;24468;52.128;9.278;2023-03-12T01:46:42;6.18;;;3.65;;
38717;SDS011;24468;52.128;9.278;2023-03-12T01:49:10;11.02;;;4.32;;
38717;SDS011;24468;52.128;9.278;2023-03-12T01:52:02;7.15;;;3.88;;
38717;SDS011;24468;52.128;9.278;2023-03-12T01:54:54;6.25;;;3.65;;
38717;SDS011;24468;52.128;9.278;2023-03-12T01:57:35;7.00;;;3.90;;
38717;SDS011;24468;52.128;9.278;2023-03-12T02:00:08;4.70;;;3.50;;
38717;SDS011;24468;52.128;9.278;2023-03-12T02:02:44;4.80;;;3.22;;
38717;SDS011;24468;52.128;9.278;2023-03-12T02:05:29;4.53;;;2.60;;
38717;SDS011;24468;52.128;9.278;2023-03-12T02:08:08;7.93;;;4.38;;
38717;SDS011;24468;52.128;9.278;2023-03-12T02:10:35;7.07;;;3.75;;
38717;SDS011;24468;52.128;9.278;2023-03-12T02:13:00;5.85;;;3.40;;
38717;SDS011;24468;52.128;9.278;2023-03-12T02:15:26;5.63;;;4.03;;
38717;SDS011;24468;52.128;9.278;2023-03-12T02:17:52;4.30;;;3.42;;
38717;SDS011;24468;52.128;9.278;2023-03-12T02:20:22;5.50;;;3.30;;
38717;SDS011;24468;52.128;9.278;2023-03-12T02:23:12;6.93;;;3.20;;
38717;SDS011;24468;52.128;9.278;2023-03-12T02:25:50;6.47;;;3.28;;
38717;SDS011;24468;52.128;9.278;2023-03-12T02:28:18;6.57;;;2.97;;
38717;SDS011;24468;52.128;9.278;2023-03-12T02:30:47;4.95;;;3.65;;
38717;SDS011;24468;52.128;9.278;2023-03-12T02:33:16;4.28;;;3.35;;
38717;SDS011;24468;52.128;9.278;2023-03-12T02:35:43;7.20;;;3.42;;
38717;SDS011;24468;52.128;9.278;2023-03-12T02:40:57;5.30;;;3.25;;
38717;SDS011;24468;52.128;9.278;2023-03-12T02:43:46;6.60;;;2.97;;
38717;SDS011;24468;52.128;9.278;2023-03-12T02:46:24;4.40;;;2.75;;
38717;SDS011;24468;52.128;9.278;2023-03-12T02:48:51;8.93;;;2.65;;
38717;SDS011;24468;52.128;9.278;2023-03-12T02:51:19;4.50;;;2.80;;
38717;SDS011;24468;52.128;9.278;2023-03-12T02:53:44;5.03;;;2.92;;
38717;SDS011;24468;52.128;9.278;2023-03-12T02:56:10;5.10;;;2.95;;
38717;SDS011;24468;52.128;9.278;2023-03-12T02:58:36;8.25;;;3.67;;
38717;SDS011;24468;52.128;9.278;2023-03-12T03:01:01;11.00;;;3.72;;
38717;SDS011;24468;52.128;9.278;2023-03-12T03:03:27;4.45;;;3.10;;
38717;SDS011;24468;52.128;9.278;2023-03-12T03:05:53;4.10;;;3.20;;
38717;SDS011;24468;52.128;9.278;2023-03-12T03:08:18;5.70;;;3.00;;
38717;SDS011;24468;52.128;9.278;2023-03-12T03:10:44;5.63;;;2.95;;
38717;SDS011;24468;52.128;9.278;2023-03-12T03:13:10;5.57;;;3.22;;
38717;SDS011;24468;52.128;9.278;2023-03-12T03:15:36;3.78;;;3.00;;
38717;SDS011;24468;52.128;9.278;2023-03-12T03:18:02;5.65;;;3.05;;
38717;SDS011;24468;52.128;9.278;2023-03-12T03:20:29;8.50;;;3.30;;
38717;SDS011;24468;52.128;9.278;2023-03-12T03:22:56;5.97;;;3.92;;
38717;SDS011;24468;52.128;9.278;2023-03-12T03:25:22;5.50;;;3.03;;
38717;SDS011;24468;52.128;9.278;2023-03-12T03:27:48;5.75;;;3.45;;
38717;SDS011;24468;52.128;9.278;2023-03-12T03:30:13;7.63;;;3.80;;
38717;SDS011;24468;52.128;9.278;2023-03-12T03:32:40;7.40;;;3.70;;
38717;SDS011;24468;52.128;9.278;2023-03-12T03:35:06;6.75;;;3.30;;
38717;SDS011;24468;52.128;9.278;2023-03-12T03:37:32;9.80;;;4.43;;
38717;SDS011;24468;52.128;9.278;2023-03-12T03:39:57;6.30;;;3.88;;
38717;SDS011;24468;52.128;9.278;2023-03-12T03:42:23;4.72;;;3.30;;
38717;SDS011;24468;52.128;9.278;2023-03-12T03:44:49;5.45;;;3.45;;
38717;SDS011;24468;52.128;9.278;2023-03-12T03:47:14;4.97;;;3.75;;
38717;SDS011;24468;52.128;9.278;2023-03-12T03:49:40;5.50;;;3.30;;
38717;SDS011;24468;52.128;9.278;2023-03-12T03:52:05;5.85;;;3.50;;
38717;SDS011;24468;52.128;9.278;2023-03-12T03:54:31;5.75;;;3.17;;
38717;SDS011;24468;52.128;9.278;2023-03-12T03:56:57;6.00;;;3.40;;
38717;SDS011;24468;52.128;9.278;2023-03-12T03:59:24;4.25;;;3.20;;
38717;SDS011;24468;52.128;9.278;2023-03-12T04:01:50;4.82;;;3.33;;
38717;SDS011;24468;52.128;9.278;2023-03-12T04:04:16;5.22;;;3.00;;
38717;SDS011;24468;52.128;9.278;2023-03-12T04:06:42;3.28;;;2.40;;
38717;SDS011;24468;52.128;9.278;2023-03-12T04:09:07;6.25;;;3.25;;
38717;SDS011;24468;52.128;9.278;2023-03-12T04:11:33;3.95;;;3.00;;
38717;SDS011;24468;52.128;9.278;2023-03-12T04:13:59;4.45;;;3.17;;
38717;SDS011;24468;52.128;9.278;2023-03-12T04:16:24;4.50;;;3.28;;
38717;SDS011;24468;52.128;9.278;2023-03-12T04:18:51;4.35;;;2.75;;
38717;SDS011;24468;52.128;9.278;2023-03-12T04:21:17;5.90;;;2.90;;
38717;SDS011;24468;52.128;9.278;2023-03-12T04:23:43;3.70;;;2.63;;
38717;SDS011;24468;52.128;9.278;2023-03-12T04:26:08;8.95;;;2.88;;
38717;SDS011;24468;52.128;9.278;2023-03-12T04:28:34;6.55;;;3.13;;
38717;SDS011;24468;52.128;9.278;2023-03-12T04:31:01;3.70;;;3.08;;
38717;SDS011;24468;52.128;9.278;2023-03-12T04:33:31;6.55;;;2.83;;
38717;SDS011;24468;52.128;9.278;2023-03-12T04:36:00;8.27;;;3.30;;
38717;SDS011;24468;52.128;9.278;2023-03-12T04:38:25;3.97;;;2.30;;
38717;SDS011;24468;52.128;9.278;2023-03-12T04:43:25;4.25;;;3.10;;
38717;SDS011;24468;52.128;9.278;2023-03-12T04:45:52;6.47;;;3.60;;
38717;SDS011;24468;52.128;9.278;2023-03-12T04:48:19;8.63;;;3.50;;
38717;SDS011;24468;52.128;9.278;2023-03-12T04:50:44;4.47;;;2.67;;
38717;SDS011;24468;52.128;9.278;2023-03-12T04:53:10;6.32;;;3.33;;
38717;SDS011;24468;52.128;9.278;2023-03-12T04:55:35;5.07;;;2.75;;
38717;SDS011;24468;52.128;9.278;2023-03-12T04:58:01;11.82;;;3.47;;
38717;SDS011;24468;52.128;9.278;2023-03-12T05:00:27;7.28;;;3.13;;
38717;SDS011;24468;52.128;9.278;2023-03-12T05:02:53;4.47;;;2.45;;
38717;SDS011;24468;52.128;9.278;2023-03-12T05:05:18;6.45;;;2.90;;
38717;SDS011;24468;52.128;9.278;2023-03-12T05:07:44;8.38;;;3.22;;
38717;SDS011;24468;52.128;9.278;2023-03-12T05:10:10;4.60;;;3.35;;
38717;SDS011;24468;52.128;9.278;2023-03-12T05:12:35;5.10;;;2.55;;
38717;SDS011;24468;52.128;9.278;2023-03-12T05:15:01;6.35;;;3.20;;
38717;SDS011;24468;52.128;9.278;2023-03-12T05:17:27;4.57;;;2.60;;
38717;SDS011;24468;52.128;9.278;2023-03-12T05:19:52;7.20;;;2.85;;
38717;SDS011;24468;52.128;9.278;2023-03-12T05:22:18;5.00;;;2.80;;
38717;SDS011;24468;52.128;9.278;2023-03-12T05:24:43;4.53;;;2.83;;
38717;SDS011;24468;52.128;9.278;2023-03-12T05:27:09;3.53;;;2.55;;
38717;SDS011;24468;52.128;9.278;2023-03-12T05:29:35;5.40;;;3.00;;
38717;SDS011;24468;52.128;9.278;2023-03-12T05:32:01;6.00;;;2.75;;
38717;SDS011;24468;52.128;9.278;2023-03-12T05:34:27;3.42;;;2.58;;
38717;SDS011;24468;52.128;9.278;2023-03-12T05:36:54;4.25;;;2.53;;
38717;SDS011;24468;52.128;9.278;2023-03-12T05:39:23;6.93;;;3.00;;
38717;SDS011;24468;52.128;9.278;2023-03-12T05:41:50;4.80;;;2.90;;
38717;SDS011;24468;52.128;9.278;2023-03-12T05:44:20;5.57;;;2.55;;
38717;SDS011;24468;52.128;9.278;2023-03-12T05:46:46;5.85;;;3.25;;
38717;SDS011;24468;52.128;9.278;2023-03-12T05:49:12;3.70;;;2.80;;
38717;SDS011;24468;52.128;9.278;2023-03-12T05:51:37;9.82;;;3.72;;
38717;SDS011;24468;52.128;9.278;2023-03-12T05:54:03;5.10;;;3.05;;
38717;SDS011;24468;52.128;9.278;2023-03-12T05:56:28;5.05;;;2.78;;
38717;SDS011;24468;52.128;9.278;2023-03-12T05:58:54;3.40;;;2.42;;
38717;SDS011;24468;52.128;9.278;2023-03-12T06:01:24;6.22;;;2.90;;
38717;SDS011;24468;52.128;9.278;2023-03-12T06:03:52;5.13;;;3.15;;
38717;SDS011;24468;52.128;9.278;2023-03-12T06:06:18;4.70;;;2.65;;
38717;SDS011;24468;52.128;9.278;2023-03-12T06:08:44;4.47;;;2.88;;
38717;SDS011;24468;52.128;9.278;2023-03-12T06:11:11;7.93;;;3.38;;
38717;SDS011;24468;52.128;9.278;2023-03-12T06:13:37;4.53;;;3.38;;
38717;SDS011;24468;52.128;9.278;2023-03-12T06:16:04;6.43;;;3.22;;
38717;SDS011;24468;52.128;9.278;2023-03-12T06:18:33;5.93;;;3.22;;
38717;SDS011;24468;52.128;9.278;2023-03-12T06:21:10;3.70;;;3.20;;
38717;SDS011;24468;52.128;9.278;2023-03-12T06:23:45;9.57;;;3.47;;
38717;SDS011;24468;52.128;9.278;2023-03-12T06:26:11;3.53;;;2.90;;
38717;SDS011;24468;52.128;9.278;2023-03-12T06:28:37;6.40;;;3.80;;
38717;SDS011;24468;52.128;9.278;2023-03-12T06:31:03;6.20;;;2.88;;
38717;SDS011;24468;52.128;9.278;2023-03-12T06:33:29;5.68;;;3.53;;
38717;SDS011;24468;52.128;9.278;2023-03-12T06:35:56;7.32;;;2.95;;
38717;SDS011;24468;52.128;9.278;2023-03-12T06:38:24;6.95;;;4.18;;
38717;SDS011;24468;52.128;9.278;2023-03-12T06:41:00;6.32;;;3.33;;
38717;SDS011;24468;52.128;9.278;2023-03-12T06:43:32;5.97;;;3.03;;
38717;SDS011;24468;52.128;9.278;2023-03-12T06:46:01;3.75;;;2.65;;
38717;SDS011;24468;52.128;9.278;2023-03-12T06:48:28;4.82;;;3.03;;
38717;SDS011;24468;52.128;9.278;2023-03-12T06:51:00;4.70;;;2.97;;
38717;SDS011;24468;52.128;9.278;2023-03-12T06:53:29;5.38;;;3.17;;
38717;SDS011;24468;52.128;9.278;2023-03-12T06:55:55;8.13;;;3.00;;
38717;SDS011;24468;52.128;9.278;2023-03-12T06:58:21;3.15;;;2.78;;
38717;SDS011;24468;52.128;9.278;2023-03-12T07:00:46;5.35;;;3.20;;
38717;SDS011;24468;52.128;9.278;2023-03-12T07:03:12;7.53;;;3.40;;
38717;SDS011;24468;52.128;9.278;2023-03-12T07:05:37;5.13;;;3.40;;
38717;SDS011;24468;52.128;9.278;2023-03-12T07:08:03;5.30;;;3.53;;
38717;SDS011;24468;52.128;9.278;2023-03-12T07:10:29;5.55;;;3.20;;
38717;SDS011;24468;52.128;9.278;2023-03-12T07:12:55;3.50;;;2.50;;
38717;SDS011;24468;52.128;9.278;2023-03-12T07:15:21;5.43;;;3.00;;
38717;SDS011;24468;52.128;9.278;2023-03-12T07:17:47;4.95;;;3.70;;
38717;SDS011;24468;52.128;9.278;2023-03-12T07:20:13;4.68;;;2.00;;
38717;SDS011;24468;52.128;9.278;2023-03-12T07:22:38;6.30;;;2.85;;
38717;SDS011;24468;52.128;9.278;2023-03-12T07:25:04;4.97;;;2.45;;
38717;SDS011;24468;52.128;9.278;2023-03-12T07:27:30;8.07;;;3.03;;
38717;SDS011;24468;52.128;9.278;2023-03-12T07:29:56;4.47;;;2.75;;
38717;SDS011;24468;52.128;9.278;2023-03-12T07:32:21;5.60;;;2.20;;
38717;SDS011;24468;52.128;9.278;2023-03-12T07:34:47;4.68;;;3.08;;
38717;SDS011;24468;52.128;9.278;2023-03-12T07:37:12;8.15;;;2.75;;
38717;SDS011;24468;52.128;9.278;2023-03-12T07:39:38;7.07;;;2.33;;
38717;SDS011;24468;52.128;9.278;2023-03-12T07:42:03;3.95;;;2.33;;
38717;SDS011;24468;52.128;9.278;2023-03-12T07:44:29;3.72;;;3.13;;
38717;SDS011;24468;52.128;9.278;2023-03-12T07:46:55;5.32;;;2.97;;
38717;SDS011;24468;52.128;9.278;2023-03-12T07:49:20;3.47;;;1.88;;
38717;SDS011;24468;52.128;9.278;2023-03-12T07:51:46;4.95;;;2.60;;
38717;SDS011;24468;52.128;9.278;2023-03-12T07:54:12;4.30;;;2.38;;
38717;SDS011;24468;52.128;9.278;2023-03-12T07:56:37;4.07;;;2.17;;
38717;SDS011;24468;52.128;9.278;2023-03-12T07:59:03;4.10;;;2.53;;
38717;SDS011;24468;52.128;9.278;2023-03-12T08:01:29;4.43;;;2.17;;
38717;SDS011;24468;52.128;9.278;2023-03-12T08:03:59;5.90;;;2.90;;
38717;SDS011;24468;52.128;9.278;2023-03-12T08:06:26;7.05;;;4.30;;
38717;SDS011;24468;52.128;9.278;2023-03-12T08:08:52;7.47;;;4.15;;
38717;SDS011;24468;52.128;9.278;2023-03-12T08:11:17;13.82;;;8.15;;
38717;SDS011;24468;52.128;9.278;2023-03-12T08:13:43;7.97;;;4.43;;
38717;SDS011;24468;52.128;9.278;2023-03-12T08:16:09;9.38;;;2.78;;
38717;SDS011;24468;52.128;9.278;2023-03-12T08:18:34;2.85;;;1.85;;
38717;SDS011;24468;52.128;9.278;2023-03-12T08:21:00;3.75;;;1.52;;
38717;SDS011;24468;52.128;9.278;2023-03-12T08:23:26;4.03;;;1.65;;
38717;SDS011;24468;52.128;9.278;2023-03-12T08:25:52;5.53;;;1.67;;
38717;SDS011;24468;52.128;9.278;2023-03-12T08:28:19;4.40;;;1.55;;
38717;SDS011;24468;52.128;9.278;2023-03-12T08:30:47;6.40;;;1.88;;
38717;SDS011;24468;52.128;9.278;2023-03-12T08:33:16;2.03;;;1.60;;
38717;SDS011;24468;52.128;9.278;2023-03-12T08:35:42;5.63;;;1.75;;
38717;SDS011;24468;52.128;9.278;2023-03-12T08:38:09;10.27;;;2.17;;
38717;SDS011;24468;52.128;9.278;2023-03-12T08:40:34;5.90;;;2.85;;
38717;SDS011;24468;52.128;9.278;2023-03-12T08:43:00;4.30;;;1.42;;
38717;SDS011;24468;52.128;9.278;2023-03-12T08:45:25;5.38;;;1.40;;
38717;SDS011;24468;52.128;9.278;2023-03-12T08:47:51;3.20;;;1.85;;
38717;SDS011;24468;52.128;9.278;2023-03-12T08:50:17;5.43;;;2.25;;
38717;SDS011;24468;52.128;9.278;2023-03-12T08:52:46;3.38;;;1.63;;
38717;SDS011;24468;52.128;9.278;2023-03-12T08:55:11;3.53;;;1.45;;
38717;SDS011;24468;52.128;9.278;2023-03-12T08:57:37;5.13;;;1.52;;
38717;SDS011;24468;52.128;9.278;2023-03-12T09:00:04;5.80;;;1.77;;
38717;SDS011;24468;52.128;9.278;2023-03-12T09:02:35;9.48;;;3.05;;
38717;SDS011;24468;52.128;9.278;2023-03-12T09:05:02;4.93;;;2.47;;
38717;SDS011;24468;52.128;9.278;2023-03-12T09:07:29;5.28;;;1.98;;
38717;SDS011;24468;52.128;9.278;2023-03-12T09:09:55;5.95;;;2.65;;
38717;SDS011;24468;52.128;9.278;2023-03-12T09:12:21;9.48;;;3.25;;
38717;SDS011;24468;52.128;9.278;2023-03-12T09:14:48;4.55;;;3.40;;
38717;SDS011;24468;52.128;9.278;2023-03-12T09:17:15;5.72;;;3.03;;
38717;SDS011;24468;52.128;9.278;2023-03-12T09:19:40;5.28;;;2.55;;
38717;SDS011;24468;52.128;9.278;2023-03-12T09:22:06;7.68;;;3.42;;
38717;SDS011;24468;52.128;9.278;2023-03-12T09:24:31;6.40;;;2.38;;
38717;SDS011;24468;52.128;9.278;2023-03-12T09:26:57;5.82;;;3.28;;
38717;SDS011;24468;52.128;9.278;2023-03-12T09:29:22;6.45;;;2.17;;
38717;SDS011;24468;52.128;9.278;2023-03-12T09:31:49;4.93;;;2.30;;
38717;SDS011;24468;52.128;9.278;2023-03-12T09:34:15;10.10;;;3.45;;
38717;SDS011;24468;52.128;9.278;2023-03-12T09:36:41;4.03;;;1.90;;
38717;SDS011;24468;52.128;9.278;2023-03-12T09:39:07;5.30;;;1.98;;
38717;SDS011;24468;52.128;9.278;2023-03-12T09:41:33;6.88;;;2.60;;
38717;SDS011;24468;52.128;9.278;2023-03-12T09:46:45;3.00;;;1.60;;
38717;SDS011;24468;52.128;9.278;2023-03-12T09:49:38;7.43;;;1.42;;
38717;SDS011;24468;52.128;9.278;2023-03-12T09:52:17;3.75;;;1.73;;
38717;SDS011;24468;52.128;9.278;2023-03-12T09:55:01;6.25;;;2.10;;
38717;SDS011;24468;52.128;9.278;2023-03-12T09:57:42;3.47;;;1.63;;
38717;SDS011;24468;52.128;9.278;2023-03-12T10:00:13;10.98;;;4.22;;
38717;SDS011;24468;52.128;9.278;2023-03-12T10:08:06;4.95;;;2.08;;
38717;SDS011;24468;52.128;9.278;2023-03-12T10:11:25;5.10;;;1.75;;
38717;SDS011;24468;52.128;9.278;2023-03-12T10:20:19;5.78;;;2.97;;
38717;SDS011;24468;52.128;9.278;2023-03-12T10:23:39;4.20;;;1.95;;
38717;SDS011;24468;52.128;9.278;2023-03-12T10:26:21;4.00;;;2.30;;
38717;SDS011;24468;52.128;9.278;2023-03-12T10:29:19;4.35;;;1.95;;
38717;SDS011;24468;52.128;9.278;2023-03-12T10:34:38;3.45;;;2.20;;
38717;SDS011;24468;52.128;9.278;2023-03-12T10:39:57;10.90;;;3.70;;
38717;SDS011;24468;52.128;9.278;2023-03-12T10:42:28;5.45;;;2.55;;
38717;SDS011;24468;52.128;9.278;2023-03-12T10:45:10;4.90;;;2.33;;
38717;SDS011;24468;52.128;9.278;2023-03-12T10:48:17;5.05;;;2.30;;
38717;SDS011;24468;52.128;9.278;2023-03-12T10:50:59;5.20;;;2.60;;
38717;SDS011;24468;52.128;9.278;2023-03-12T10:53:42;5.68;;;2.88;;
38717;SDS011;24468;52.128;9.278;2023-03-12T10:56:18;5.90;;;2.80;;
38717;SDS011;24468;52.128;9.278;2023-03-12T10:58:49;5.97;;;3.17;;
38717;SDS011;24468;52.128;9.278;2023-03-12T11:01:24;7.28;;;3.10;;
38717;SDS011;24468;52.128;9.278;2023-03-12T11:04:08;4.25;;;2.55;;
38717;SDS011;24468;52.128;9.278;2023-03-12T11:06:41;8.85;;;3.03;;
38717;SDS011;24468;52.128;9.278;2023-03-12T11:09:17;4.47;;;2.50;;
38717;SDS011;24468;52.128;9.278;2023-03-12T11:11:44;5.05;;;2.88;;
38717;SDS011;24468;52.128;9.278;2023-03-12T11:14:16;12.57;;;3.72;;
38717;SDS011;24468;52.128;9.278;2023-03-12T11:16:47;6.65;;;3.22;;
38717;SDS011;24468;52.128;9.278;2023-03-12T11:19:14;3.47;;;2.75;;
38717;SDS011;24468;52.128;9.278;2023-03-12T11:22:08;8.52;;;3.13;;
38717;SDS011;24468;52.128;9.278;2023-03-12T11:24:35;5.88;;;2.90;;
38717;SDS011;24468;52.128;9.278;2023-03-12T11:27:45;7.07;;;3.60;;
38717;SDS011;24468;52.128;9.278;2023-03-12T11:30:14;6.78;;;3.05;;
38717;SDS011;24468;52.128;9.278;2023-03-12T11:32:46;4.78;;;2.75;;
38717;SDS011;24468;52.128;9.278;2023-03-12T11:35:15;4.03;;;2.75;;
38717;SDS011;24468;52.128;9.278;2023-03-12T11:38:02;5.50;;;3.92;;
38717;SDS011;24468;52.128;9.278;2023-03-12T11:40:50;5.25;;;3.20;;
38717;SDS011;24468;52.128;9.278;2023-03-12T11:46:19;3.28;;;2.70;;
38717;SDS011;24468;52.128;9.278;2023-03-12T11:49:21;4.95;;;3.33;;
38717;SDS011;24468;52.128;9.278;2023-03-12T12:01:10;4.38;;;2.92;;
38717;SDS011;24468;52.128;9.278;2023-03-12T12:03:52;5.75;;;3.15;;
38717;SDS011;24468;52.128;9.278;2023-03-12T12:10:21;6.60;;;2.80;;
38717;SDS011;24468;52.128;9.278;2023-03-12T12:13:14;3.83;;;2.90;;
38717;SDS011;24468;52.128;9.278;2023-03-12T12:16:24;3.83;;;3.35;;
38717;SDS011;24468;52.128;9.278;2023-03-12T12:25:11;6.47;;;2.97;;
38717;SDS011;24468;52.128;9.278;2023-03-12T12:31:23;8.73;;;5.60;;
38717;SDS011;24468;52.128;9.278;2023-03-12T12:46:18;6.68;;;4.53;;
38717;SDS011;24468;52.128;9.278;2023-03-12T12:48:52;5.50;;;3.30;;
38717;SDS011;24468;52.128;9.278;2023-03-12T12:51:26;5.18;;;4.03;;
38717;SDS011;24468;52.128;9.278;2023-03-12T12:54:11;6.22;;;3.85;;
38717;SDS011;24468;52.128;9.278;2023-03-12T12:59:42;3.42;;;3.10;;
38717;SDS011;24468;52.128;9.278;2023-03-12T13:02:30;4.15;;;2.90;;
38717;SDS011;24468;52.128;9.278;2023-03-12T13:04:58;4.28;;;3.85;;
38717;SDS011;24468;52.128;9.278;2023-03-12T13:09:54;6.18;;;3.92;;
38717;SDS011;24468;52.128;9.278;2023-03-12T13:15:47;5.60;;;3.50;;
38717;SDS011;24468;52.128;9.278;2023-03-12T13:23:29;9.05;;;5.32;;
38717;SDS011;24468;52.128;9.278;2023-03-12T13:32:00;4.30;;;3.50;;
38717;SDS011;24468;52.128;9.278;2023-03-12T13:36:52;6.57;;;4.63;;
38717;SDS011;24468;52.128;9.278;2023-03-12T13:39:31;6.22;;;4.03;;
38717;SDS011;24468;52.128;9.278;2023-03-12T13:44:48;4.03;;;2.90;;
38717;SDS011;24468;52.128;9.278;2023-03-12T13:47:30;2.63;;;2.20;;
38717;SDS011;24468;52.128;9.278;2023-03-12T13:52:39;18.45;;;10.95;;
38717;SDS011;24468;52.128;9.278;2023-03-12T13:55:26;8.68;;;6.85;;
38717;SDS011;24468;52.128;9.278;2023-03-12T13:58:19;2.50;;;2.30;;
38717;SDS011;24468;52.128;9.278;2023-03-12T14:00:59;2.85;;;2.60;;
38717;SDS011;24468;52.128;9.278;2023-03-12T14:03:29;4.85;;;2.80;;
38717;SDS011;24468;52.128;9.278;2023-03-12T14:16:55;3.15;;;2.58;;
38717;SDS011;24468;52.128;9.278;2023-03-12T14:19:25;2.95;;;2.67;;
38717;SDS011;24468;52.128;9.278;2023-03-12T14:21:54;5.20;;;3.97;;
38717;SDS011;24468;52.128;9.278;2023-03-12T14:24:29;5.45;;;4.90;;
38717;SDS011;24468;52.128;9.278;2023-03-12T14:27:25;5.05;;;3.45;;
38717;SDS011;24468;52.128;9.278;2023-03-12T14:30:12;5.60;;;4.30;;
38717;SDS011;24468;52.128;9.278;2023-03-12T14:32:47;5.93;;;5.25;;
38717;SDS011;24468;52.128;9.278;2023-03-12T14:35:20;5.40;;;4.72;;
38717;SDS011;24468;52.128;9.278;2023-03-12T14:40:45;16.25;;;13.18;;
38717;SDS011;24468;52.128;9.278;2023-03-12T14:43:38;7.00;;;5.20;;
38717;SDS011;24468;52.128;9.278;2023-03-12T14:46:14;13.55;;;8.32;;
38717;SDS011;24468;52.128;9.278;2023-03-12T14:48:47;9.13;;;6.30;;
38717;SDS011;24468;52.128;9.278;2023-03-12T14:51:25;23.58;;;17.58;;
38717;SDS011;24468;52.128;9.278;2023-03-12T14:53:53;16.67;;;11.57;;
38717;SDS011;24468;52.128;9.278;2023-03-12T14:56:24;9.07;;;7.80;;
38717;SDS011;24468;52.128;9.278;2023-03-12T14:58:54;6.93;;;5.70;;
38717;SDS011;24468;52.128;9.278;2023-03-12T15:01:26;9.18;;;7.05;;
38717;SDS011;24468;52.128;9.278;2023-03-12T15:03:59;5.90;;;5.30;;
38717;SDS011;24468;52.128;9.278;2023-03-12T15:06:45;5.45;;;4.30;;
38717;SDS011;24468;52.128;9.278;2023-03-12T15:09:21;5.38;;;4.85;;
38717;SDS011;24468;52.128;9.278;2023-03-12T15:11:51;7.15;;;5.20;;
38717;SDS011;24468;52.128;9.278;2023-03-12T15:14:23;9.90;;;6.68;;
38717;SDS011;24468;52.128;9.278;2023-03-12T15:16:53;6.95;;;6.25;;
38717;SDS011;24468;52.128;9.278;2023-03-12T15:19:22;13.07;;;7.40;;
38717;SDS011;24468;52.128;9.278;2023-03-12T15:21:53;5.88;;;4.70;;
38717;SDS011;24468;52.128;9.278;2023-03-12T15:24:19;5.07;;;4.60;;
38717;SDS011;24468;52.128;9.278;2023-03-12T15:26:45;5.28;;;4.78;;
38717;SDS011;24468;52.128;9.278;2023-03-12T15:29:23;4.32;;;4.00;;
38717;SDS011;24468;52.128;9.278;2023-03-12T15:31:56;5.35;;;4.85;;
38717;SDS011;24468;52.128;9.278;2023-03-12T15:37:00;6.00;;;4.90;;
38717;SDS011;24468;52.128;9.278;2023-03-12T15:39:56;6.93;;;4.85;;
38717;SDS011;24468;52.128;9.278;2023-03-12T15:42:25;6.25;;;5.05;;
38717;SDS011;24468;52.128;9.278;2023-03-12T15:44:52;5.20;;;4.50;;
38717;SDS011;24468;52.128;9.278;2023-03-12T15:47:27;4.97;;;4.45;;
38717;SDS011;24468;52.128;9.278;2023-03-12T15:49:57;6.25;;;4.40;;
38717;SDS011;24468;52.128;9.278;2023-03-12T15:52:57;7.20;;;4.75;;
38717;SDS011;24468;52.128;9.278;2023-03-12T15:58:32;6.07;;;5.07;;
38717;SDS011;24468;52.128;9.278;2023-03-12T16:01:13;5.30;;;4.60;;
38717;SDS011;24468;52.128;9.278;2023-03-12T16:03:47;5.00;;;4.50;;
38717;SDS011;24468;52.128;9.278;2023-03-12T16:06:14;6.10;;;4.85;;
38717;SDS011;24468;52.128;9.278;2023-03-12T16:08:47;4.85;;;4.30;;
38717;SDS011;24468;52.128;9.278;2023-03-12T16:11:25;5.65;;;4.72;;
38717;SDS011;24468;52.128;9.278;2023-03-12T16:16:48;6.95;;;5.65;;
38717;SDS011;24468;52.128;9.278;2023-03-12T16:19:16;7.63;;;6.28;;
38717;SDS011;24468;52.128;9.278;2023-03-12T16:21:44;7.95;;;6.28;;
38717;SDS011;24468;52.128;9.278;2023-03-12T16:24:11;7.60;;;6.25;;
38717;SDS011;24468;52.128;9.278;2023-03-12T16:26:43;8.27;;;7.03;;
38717;SDS011;24468;52.128;9.278;2023-03-12T16:29:18;10.05;;;7.40;;
38717;SDS011;24468;52.128;9.278;2023-03-12T16:31:49;10.23;;;8.90;;
38717;SDS011;24468;52.128;9.278;2023-03-12T16:34:19;14.35;;;9.18;;
38717;SDS011;24468;52.128;9.278;2023-03-12T16:36:44;11.82;;;9.10;;
38717;SDS011;24468;52.128;9.278;2023-03-12T16:39:10;16.52;;;12.70;;
38717;SDS011;24468;52.128;9.278;2023-03-12T16:41:35;14.25;;;11.25;;
38717;SDS011;24468;52.128;9.278;2023-03-12T16:44:01;17.48;;;11.60;;
38717;SDS011;24468;52.128;9.278;2023-03-12T16:46:31;20.15;;;11.38;;
38717;SDS011;24468;52.128;9.278;2023-03-12T16:48:57;15.23;;;11.50;;
38717;SDS011;24468;52.128;9.278;2023-03-12T16:51:23;13.65;;;10.65;;
38717;SDS011;24468;52.128;9.278;2023-03-12T16:53:49;16.85;;;11.38;;
38717;SDS011;24468;52.128;9.278;2023-03-12T16:56:16;19.75;;;13.00;;
38717;SDS011;24468;52.128;9.278;2023-03-12T16:58:45;18.73;;;13.20;;